Time;durP1;ratioP1;P1;durP2;ratioP2;P2;SDS_P1;SDS_P2;PMS_P1;PMS_P2;Temp;Humidity;BMP_temperature;BMP_pressure;BME280_temperature;BME280_humidity;BME280_pressure;Samples;Min_cycle;Max_cycle;Signal;HPM_P1;HPM_P2
2022/12/18 00:01:50;;;;;;;37.53;20.73;;;-10.10;99.90;;;;;;5033884;28;20175;-83
2022/12/18 00:04:24;;;;;;;39.17;21.13;;;-10.20;99.90;;;;;;5031925;28;20206;-82
2022/12/18 00:06:51;;;;;;;48.57;24.60;;;-10.20;99.90;;;;;;5035879;28;20683;-84
2022/12/18 00:09:16;;;;;;;34.37;20.93;;;-10.20;99.90;;;;;;5041219;28;20246;-83
2022/12/18 00:11:42;;;;;;;38.73;22.10;;;-10.20;99.90;;;;;;5050008;28;20194;-81
2022/12/18 00:14:10;;;;;;;41.13;21.63;;;-10.30;99.90;;;;;;5024490;28;20176;-82
2022/12/18 00:16:36;;;;;;;47.60;24.70;;;-10.30;99.90;;;;;;5034668;28;20187;-83
2022/12/18 00:19:03;;;;;;;44.83;23.87;;;-10.20;99.90;;;;;;5018815;28;20675;-83
2022/12/18 00:21:33;;;;;;;37.13;21.03;;;-10.20;99.90;;;;;;5023860;28;20194;-82
2022/12/18 00:24:00;;;;;;;41.37;23.63;;;-10.20;99.90;;;;;;5045654;28;20199;-83
2022/12/18 00:26:29;;;;;;;39.97;21.83;;;-10.10;99.90;;;;;;5038126;28;20566;-83
2022/12/18 00:28:58;;;;;;;35.03;21.43;;;-10.20;99.90;;;;;;5038888;28;20183;-83
2022/12/18 00:31:25;;;;;;;32.73;19.10;;;-10.20;99.90;;;;;;5044808;28;20179;-83
2022/12/18 00:33:51;;;;;;;37.67;22.03;;;-10.20;99.90;;;;;;5047636;28;20194;-83
2022/12/18 00:36:19;;;;;;;39.03;21.40;;;-10.30;99.90;;;;;;5054430;28;20194;-81
2022/12/18 00:38:46;;;;;;;35.87;20.13;;;-10.30;99.90;;;;;;5053199;28;20246;-83
2022/12/18 00:42:55;;;;;;;38.10;21.57;;;-10.40;99.90;;;;;;5040207;28;20735;-83
2022/12/18 00:44:00;;;;;;;29.13;19.13;;;-10.40;99.90;;;;;;5037793;28;20683;-83
2022/12/18 00:46:26;;;;;;;35.23;19.97;;;-10.40;99.90;;;;;;5036468;28;20566;-83
2022/12/18 00:48:52;;;;;;;45.53;23.00;;;-10.50;99.90;;;;;;5036622;28;20214;-85
2022/12/18 00:51:18;;;;;;;41.73;22.87;;;-10.50;99.90;;;;;;5036222;28;20225;-82
2022/12/18 00:53:45;;;;;;;36.50;20.03;;;-10.50;99.90;;;;;;5018845;28;20211;-83
2022/12/18 00:56:10;;;;;;;33.23;19.90;;;-10.50;99.90;;;;;;5037203;28;20317;-83
2022/12/18 00:58:36;;;;;;;35.57;20.47;;;-10.50;99.90;;;;;;5034850;28;20206;-84
2022/12/18 01:01:04;;;;;;;33.20;20.33;;;-10.50;99.90;;;;;;5035860;28;20233;-83
2022/12/18 01:03:30;;;;;;;36.40;19.50;;;-10.60;99.90;;;;;;5035006;28;20215;-83
2022/12/18 01:05:56;;;;;;;44.40;21.27;;;-10.60;99.90;;;;;;5082220;23;20226;-82
2022/12/18 01:08:22;;;;;;;45.63;20.60;;;-10.60;99.90;;;;;;5065659;28;20208;-84
2022/12/18 01:10:48;;;;;;;41.23;22.57;;;-10.70;99.90;;;;;;5068522;28;20205;-83
2022/12/18 01:13:14;;;;;;;41.93;23.13;;;-10.70;99.90;;;;;;5061251;28;20216;-83
2022/12/18 01:15:39;;;;;;;32.70;19.43;;;-10.70;99.90;;;;;;5059042;28;20201;-85
2022/12/18 01:18:06;;;;;;;35.00;20.47;;;-10.70;99.90;;;;;;5058082;28;20182;-84
2022/12/18 01:20:32;;;;;;;34.73;19.90;;;-10.60;99.90;;;;;;5059166;28;20181;-85
2022/12/18 01:22:58;;;;;;;42.83;22.80;;;-10.60;99.90;;;;;;5057732;28;20179;-83
2022/12/18 01:25:24;;;;;;;33.07;17.60;;;-10.70;99.90;;;;;;5057093;28;20296;-84
2022/12/18 01:27:50;;;;;;;30.77;18.67;;;-10.70;99.90;;;;;;5060790;28;20182;-83
2022/12/18 01:30:18;;;;;;;35.93;20.57;;;-10.70;99.90;;;;;;5056922;28;20661;-82
2022/12/18 01:32:44;;;;;;;37.50;21.80;;;-10.70;99.90;;;;;;5061123;28;20186;-86
2022/12/18 01:35:09;;;;;;;28.03;17.40;;;-10.70;99.90;;;;;;5074709;28;20202;-83
2022/12/18 01:37:35;;;;;;;35.57;20.70;;;-10.70;99.90;;;;;;5072569;28;20194;-82
2022/12/18 01:40:01;;;;;;;33.37;19.83;;;-10.70;99.90;;;;;;5072394;28;20218;-84
2022/12/18 01:42:27;;;;;;;32.23;19.10;;;-10.80;99.90;;;;;;5070551;28;20186;-84
2022/12/18 01:45:11;;;;;;;26.57;15.50;;;-10.80;99.90;;;;;;5068385;28;20203;-84
2022/12/18 01:47:46;;;;;;;31.10;16.17;;;-10.90;99.90;;;;;;5059975;28;20667;-82
2022/12/18 01:50:11;;;;;;;34.30;20.30;;;-10.80;99.90;;;;;;5063578;28;20252;-83
2022/12/18 01:52:44;;;;;;;34.03;21.33;;;-10.80;99.90;;;;;;5067398;28;20649;-83
2022/12/18 01:55:12;;;;;;;35.97;20.47;;;-10.80;99.90;;;;;;5059115;28;20217;-82
2022/12/18 01:57:40;;;;;;;30.63;19.23;;;-10.70;99.90;;;;;;5059678;28;20187;-83
2022/12/18 02:00:10;;;;;;;32.17;18.17;;;-10.70;99.90;;;;;;5056562;28;20273;-82
2022/12/18 02:02:37;;;;;;;37.37;20.80;;;-10.70;99.90;;;;;;5056813;28;20661;-83
2022/12/18 02:05:04;;;;;;;38.57;20.30;;;-10.70;99.90;;;;;;5057042;28;20210;-85
2022/12/18 02:07:53;;;;;;;36.67;21.57;;;-10.70;99.90;;;;;;5056413;28;20191;-84
2022/12/18 02:11:00;;;;;;;36.30;20.07;;;-10.80;99.90;;;;;;5057337;28;20820;-81
2022/12/18 02:13:46;;;;;;;32.27;18.27;;;-10.70;99.90;;;;;;5058972;28;20194;-82
2022/12/18 02:16:35;;;;;;;38.27;19.63;;;-10.70;99.90;;;;;;5057451;28;20297;-84
2022/12/18 02:19:10;;;;;;;32.27;16.73;;;-10.60;99.90;;;;;;5055799;28;20182;-83
2022/12/18 02:21:56;;;;;;;29.47;19.07;;;-10.70;99.90;;;;;;5057238;28;20182;-83
2022/12/18 02:24:32;;;;;;;29.27;20.47;;;-10.80;99.90;;;;;;5057226;28;20552;-81
2022/12/18 02:27:03;;;;;;;26.13;16.73;;;-10.80;99.90;;;;;;5055648;28;20212;-82
2022/12/18 02:29:36;;;;;;;26.43;18.47;;;-10.90;99.90;;;;;;5056380;28;20269;-82
2022/12/18 02:32:05;;;;;;;35.90;19.27;;;-10.90;99.90;;;;;;5057026;28;20632;-83
2022/12/18 02:34:35;;;;;;;25.27;18.57;;;-10.80;99.90;;;;;;5055163;28;20179;-82
2022/12/18 02:37:06;;;;;;;32.50;19.73;;;-10.80;99.90;;;;;;5055818;28;20206;-82
2022/12/18 02:39:34;;;;;;;29.20;18.13;;;-10.80;99.90;;;;;;5057522;28;20250;-85
2022/12/18 02:42:07;;;;;;;23.30;17.83;;;-10.80;99.90;;;;;;5072966;28;20158;-81
2022/12/18 02:44:47;;;;;;;30.93;20.17;;;-10.70;99.90;;;;;;5061807;28;20201;-83
2022/12/18 02:47:16;;;;;;;28.80;17.63;;;-10.70;99.90;;;;;;5065918;28;20190;-83
2022/12/18 02:50:07;;;;;;;37.40;20.93;;;-10.70;99.90;;;;;;5058375;28;20179;-83
2022/12/18 02:52:38;;;;;;;28.67;18.67;;;-10.70;99.90;;;;;;5056438;28;20194;-82
2022/12/18 02:55:35;;;;;;;31.33;19.40;;;-10.70;99.90;;;;;;5056111;28;20208;-83
2022/12/18 02:58:26;;;;;;;35.80;20.73;;;-10.60;99.90;;;;;;5068784;28;20174;-85
2022/12/18 03:01:14;;;;;;;26.37;18.60;;;-10.60;99.90;;;;;;5061603;28;20182;-81
2022/12/18 03:03:51;;;;;;;24.87;17.40;;;-10.60;99.90;;;;;;5054365;28;20670;-82
2022/12/18 03:06:29;;;;;;;32.87;18.90;;;-10.50;99.90;;;;;;5056553;28;20245;-81
2022/12/18 03:09:29;;;;;;;25.70;18.70;;;-10.50;99.90;;;;;;5069068;28;20174;-82
2022/12/18 03:14:45;;;;;;;30.13;19.23;;;-10.60;99.90;;;;;;5069004;28;20186;-81
2022/12/18 03:17:17;;;;;;;25.13;17.10;;;-10.60;99.90;;;;;;5071177;28;20175;-80
2022/12/18 03:19:46;;;;;;;28.50;17.97;;;-10.60;99.90;;;;;;5077223;28;20178;-85
2022/12/18 03:22:13;;;;;;;30.40;16.70;;;-10.60;99.90;;;;;;5077704;28;20182;-86
2022/12/18 03:24:39;;;;;;;25.83;18.57;;;-10.60;99.90;;;;;;5067793;28;20194;-82
2022/12/18 03:27:11;;;;;;;30.73;16.20;;;-10.60;99.90;;;;;;5060440;28;20811;-82
2022/12/18 03:29:53;;;;;;;25.57;13.47;;;-10.50;99.90;;;;;;5059327;28;20626;-83
2022/12/18 03:32:32;;;;;;;33.23;20.10;;;-10.50;99.90;;;;;;5057471;28;20193;-82
2022/12/18 03:35:02;;;;;;;29.80;16.40;;;-10.60;99.90;;;;;;5056919;28;20182;-82
2022/12/18 03:37:31;;;;;;;35.27;18.63;;;-10.50;99.90;;;;;;5058564;28;20568;-82
2022/12/18 03:39:57;;;;;;;35.00;17.83;;;-10.50;99.90;;;;;;5056848;28;20659;-82
2022/12/18 03:42:32;;;;;;;26.10;17.00;;;-10.60;99.90;;;;;;5057920;28;20183;-82
2022/12/18 03:45:11;;;;;;;35.67;17.93;;;-10.60;99.90;;;;;;5055952;28;20202;-83
2022/12/18 03:47:51;;;;;;;23.70;13.77;;;-10.60;99.90;;;;;;5055105;28;20178;-82
2022/12/18 03:50:22;;;;;;;16.03;11.60;;;-10.50;99.90;;;;;;5055838;28;20174;-82
2022/12/18 03:52:56;;;;;;;25.57;15.17;;;-10.40;99.90;;;;;;5054978;28;20213;-81
2022/12/18 03:55:22;;;;;;;34.23;17.80;;;-10.50;99.90;;;;;;5057712;28;20202;-81
2022/12/18 03:57:49;;;;;;;23.97;16.40;;;-10.50;99.90;;;;;;5057637;28;20178;-83
2022/12/18 04:00:17;;;;;;;28.43;18.13;;;-10.50;99.90;;;;;;5057550;28;20182;-81
2022/12/18 04:02:51;;;;;;;27.30;16.30;;;-10.60;99.90;;;;;;5057336;28;20687;-82
2022/12/18 04:05:19;;;;;;;29.03;16.07;;;-10.60;99.90;;;;;;5063342;28;20305;-82
2022/12/18 04:07:50;;;;;;;38.53;18.83;;;-10.60;99.90;;;;;;5059550;28;20174;-83
2022/12/18 04:10:17;;;;;;;21.93;15.50;;;-10.70;99.90;;;;;;5057801;28;20217;-80
2022/12/18 04:12:43;;;;;;;29.37;17.93;;;-10.70;99.90;;;;;;5059251;28;20171;-82
2022/12/18 04:15:11;;;;;;;31.27;17.70;;;-10.60;99.90;;;;;;5058344;28;20207;-81
2022/12/18 04:17:38;;;;;;;30.93;19.87;;;-10.60;99.90;;;;;;5058680;28;20182;-82
2022/12/18 04:20:05;;;;;;;28.00;16.17;;;-10.70;99.90;;;;;;5058180;28;20197;-82
2022/12/18 04:22:30;;;;;;;27.50;16.83;;;-10.70;99.90;;;;;;5058471;28;20182;-82
2022/12/18 04:24:56;;;;;;;19.83;16.03;;;-10.70;99.90;;;;;;5059419;28;20214;-80
2022/12/18 04:27:22;;;;;;;24.90;16.57;;;-10.70;99.90;;;;;;5071112;28;20181;-83
2022/12/18 04:29:48;;;;;;;21.33;14.80;;;-10.70;99.90;;;;;;5068721;28;20178;-80
2022/12/18 04:32:14;;;;;;;26.70;18.57;;;-10.60;99.90;;;;;;5078965;28;20204;-82
2022/12/18 04:34:39;;;;;;;28.23;16.93;;;-10.50;99.90;;;;;;5080332;28;20208;-82
2022/12/18 04:37:05;;;;;;;24.43;16.07;;;-10.50;99.90;;;;;;5078084;28;20185;-83
2022/12/18 04:39:31;;;;;;;31.87;17.73;;;-10.50;99.90;;;;;;5076359;28;20192;-82
2022/12/18 04:42:00;;;;;;;27.30;17.20;;;-10.50;99.90;;;;;;5058643;28;20178;-83
2022/12/18 04:44:25;;;;;;;29.40;18.27;;;-10.60;99.90;;;;;;5057195;28;20197;-83
2022/12/18 04:46:51;;;;;;;25.70;17.17;;;-10.70;99.90;;;;;;5058382;28;20218;-82
2022/12/18 04:49:17;;;;;;;32.07;16.37;;;-10.70;99.90;;;;;;5064141;28;20175;-82
2022/12/18 04:51:43;;;;;;;22.50;14.70;;;-10.70;99.90;;;;;;5072601;28;20670;-80
2022/12/18 04:54:08;;;;;;;27.37;18.27;;;-10.70;99.90;;;;;;5068768;28;20265;-80
2022/12/18 04:56:34;;;;;;;25.73;17.20;;;-10.70;99.90;;;;;;5069356;28;20206;-81
2022/12/18 04:59:00;;;;;;;23.20;17.20;;;-10.70;99.90;;;;;;5060998;28;20190;-83
2022/12/18 05:01:26;;;;;;;31.77;19.00;;;-10.70;99.90;;;;;;5061516;28;20178;-82
2022/12/18 05:03:52;;;;;;;28.87;17.33;;;-10.70;99.90;;;;;;5060603;28;20186;-84
2022/12/18 05:06:18;;;;;;;23.93;15.40;;;-10.70;99.90;;;;;;5059246;28;20218;-83
2022/12/18 05:08:44;;;;;;;22.67;15.20;;;-10.60;99.90;;;;;;5079389;28;20220;-85
2022/12/18 05:11:16;;;;;;;25.17;17.33;;;-10.60;99.90;;;;;;5071515;28;20737;-83
2022/12/18 05:13:44;;;;;;;30.70;19.87;;;-10.50;99.90;;;;;;5058893;28;20179;-83
2022/12/18 05:16:10;;;;;;;21.07;15.60;;;-10.50;99.90;;;;;;5059304;28;20205;-82
2022/12/18 05:18:35;;;;;;;19.17;14.90;;;-10.40;99.90;;;;;;5059111;28;20190;-82
2022/12/18 05:21:02;;;;;;;25.93;16.90;;;-10.20;99.90;;;;;;5064837;28;20217;-84
2022/12/18 05:23:28;;;;;;;26.77;16.63;;;-10.10;99.90;;;;;;5068613;28;20724;-84
2022/12/18 05:25:56;;;;;;;35.10;19.30;;;-10.10;99.90;;;;;;5057533;28;20222;-84
2022/12/18 05:28:23;;;;;;;31.97;18.53;;;-10.00;99.90;;;;;;5057114;28;20182;-84
2022/12/18 05:30:54;;;;;;;34.97;20.53;;;-9.90;99.90;;;;;;5058742;28;20237;-84
2022/12/18 05:33:21;;;;;;;28.70;18.70;;;-9.90;99.90;;;;;;5057228;28;20706;-83
2022/12/18 05:35:55;;;;;;;28.23;18.53;;;-9.80;99.90;;;;;;5057187;28;20252;-84
2022/12/18 05:38:22;;;;;;;21.97;14.80;;;-9.70;99.90;;;;;;5057210;28;20170;-83
2022/12/18 05:40:49;;;;;;;37.37;19.30;;;-9.60;99.90;;;;;;5055927;28;20232;-82
2022/12/18 05:43:16;;;;;;;29.93;18.37;;;-9.60;99.90;;;;;;5055429;28;20186;-85
2022/12/18 05:45:42;;;;;;;24.77;16.23;;;-9.60;99.90;;;;;;5056121;28;20217;-82
2022/12/18 05:48:12;;;;;;;26.80;18.20;;;-9.60;99.90;;;;;;5056199;28;20174;-83
2022/12/18 05:50:40;;;;;;;30.20;18.20;;;-9.60;99.90;;;;;;5056048;28;20177;-83
2022/12/18 05:53:06;;;;;;;22.70;16.97;;;-9.50;99.90;;;;;;5057321;28;20174;-84
2022/12/18 05:55:37;;;;;;;30.70;19.30;;;-9.50;99.90;;;;;;5056167;28;20574;-83
2022/12/18 05:58:05;;;;;;;33.87;18.87;;;-9.40;99.90;;;;;;5056999;28;20190;-82
2022/12/18 06:00:32;;;;;;;39.70;20.23;;;-9.40;99.90;;;;;;5057085;28;20193;-82
2022/12/18 06:02:58;;;;;;;36.30;19.03;;;-9.30;99.90;;;;;;5056158;28;20189;-86
2022/12/18 06:05:25;;;;;;;31.90;19.27;;;-9.20;99.90;;;;;;5055532;28;20214;-82
2022/12/18 06:07:50;;;;;;;29.30;18.17;;;-9.10;99.90;;;;;;5056793;28;20179;-83
2022/12/18 06:10:16;;;;;;;28.90;19.70;;;-9.10;99.90;;;;;;5072127;28;20178;-85
2022/12/18 06:12:42;;;;;;;32.60;19.57;;;-9.00;99.90;;;;;;5066422;28;20182;-84
2022/12/18 06:15:08;;;;;;;34.27;19.27;;;-8.90;99.90;;;;;;5065586;28;20217;-84
2022/12/18 06:17:35;;;;;;;30.73;17.70;;;-8.80;99.90;;;;;;5060819;28;20198;-84
2022/12/18 06:20:01;;;;;;;27.50;19.30;;;-8.80;99.90;;;;;;5056089;28;20178;-84
2022/12/18 06:22:27;;;;;;;33.70;17.97;;;-8.80;99.90;;;;;;5061248;28;20206;-84
2022/12/18 06:24:53;;;;;;;37.90;20.17;;;-8.70;99.90;;;;;;5067718;28;20175;-84
2022/12/18 06:27:19;;;;;;;35.07;18.90;;;-8.70;99.90;;;;;;5058621;28;20225;-85
2022/12/18 06:29:45;;;;;;;37.93;21.43;;;-8.70;99.90;;;;;;5074286;28;20661;-85
2022/12/18 06:32:11;;;;;;;32.00;18.60;;;-8.70;99.90;;;;;;5068810;28;20178;-84
2022/12/18 06:34:40;;;;;;;36.93;20.00;;;-8.60;99.90;;;;;;5076297;28;20186;-82
2022/12/18 06:37:05;;;;;;;33.50;21.13;;;-8.70;99.90;;;;;;5078159;28;20178;-83
2022/12/18 06:39:33;;;;;;;28.10;20.87;;;-8.60;99.90;;;;;;5074893;28;20182;-83
2022/12/18 06:41:59;;;;;;;41.90;22.43;;;-8.50;99.90;;;;;;5060752;28;20565;-82
2022/12/18 06:44:25;;;;;;;37.43;21.53;;;-8.60;99.90;;;;;;5055627;28;20210;-86
2022/12/18 06:46:52;;;;;;;39.53;24.37;;;-8.60;99.90;;;;;;5053665;28;20229;-83
2022/12/18 06:49:17;;;;;;;36.73;21.23;;;-8.60;99.90;;;;;;5054289;28;20201;-81
2022/12/18 06:51:43;;;;;;;35.13;27.13;;;-8.60;99.90;;;;;;5053252;28;20659;-67
2022/12/18 06:54:09;;;;;;;38.20;22.27;;;-8.60;99.90;;;;;;5050669;28;20240;-66
2022/12/18 06:56:35;;;;;;;34.93;20.03;;;-8.40;99.90;;;;;;5050514;28;20239;-69
2022/12/18 06:59:00;;;;;;;41.03;21.57;;;-8.30;99.90;;;;;;5050191;28;20182;-69
2022/12/18 07:01:26;;;;;;;49.73;18.93;;;-8.30;99.90;;;;;;5050503;28;20178;-69
2022/12/18 07:03:56;;;;;;;35.23;18.97;;;-8.20;99.90;;;;;;5050720;28;20178;-69
2022/12/18 07:06:24;;;;;;;40.03;22.63;;;-8.10;99.90;;;;;;5060927;22;20249;-71
2022/12/18 07:08:51;;;;;;;32.33;20.83;;;-8.00;99.90;;;;;;5029822;28;20182;-70
2022/12/18 07:11:17;;;;;;;22.37;15.67;;;-8.00;99.90;;;;;;5030745;28;20271;-70
2022/12/18 07:13:44;;;;;;;32.47;20.23;;;-7.80;99.90;;;;;;5029357;28;20171;-70
2022/12/18 07:16:15;;;;;;;35.57;21.73;;;-7.70;99.90;;;;;;5030886;28;20203;-71
2022/12/18 07:18:40;;;;;;;43.13;22.43;;;-7.50;99.90;;;;;;5030554;28;20202;-70
2022/12/18 07:21:08;;;;;;;41.83;23.30;;;-7.60;99.90;;;;;;5030492;28;20644;-71
2022/12/18 07:23:34;;;;;;;38.53;21.53;;;-7.60;99.90;;;;;;5030789;28;20218;-70
2022/12/18 07:26:09;;;;;;;31.40;19.97;;;-7.30;99.90;;;;;;5030665;28;20568;-69
2022/12/18 07:28:36;;;;;;;49.57;23.97;;;-7.10;99.90;;;;;;5030681;28;20718;-72
2022/12/18 07:31:06;;;;;;;41.93;22.30;;;-7.00;99.90;;;;;;5034343;28;20543;-72
2022/12/18 07:33:33;;;;;;;36.23;18.30;;;-6.90;99.90;;;;;;5034771;28;20187;-73
2022/12/18 07:36:03;;;;;;;36.97;22.90;;;-7.00;99.90;;;;;;5034734;28;20297;-72
2022/12/18 07:38:30;;;;;;;30.70;17.53;;;-7.00;99.90;;;;;;5034412;28;20557;-72
2022/12/18 07:41:10;;;;;;;29.77;19.40;;;-7.20;99.90;;;;;;5033284;28;20182;-72
2022/12/18 07:43:36;;;;;;;19.43;15.43;;;-7.30;99.90;;;;;;5034565;28;20553;-72
2022/12/18 07:46:02;;;;;;;34.57;22.27;;;-7.50;99.90;;;;;;5034511;28;20293;-72
2022/12/18 07:48:29;;;;;;;35.53;20.27;;;-7.60;99.90;;;;;;5034137;28;20656;-72
2022/12/18 07:51:06;;;;;;;21.20;14.23;;;-7.70;99.90;;;;;;5034208;28;20552;-73
2022/12/18 07:53:33;;;;;;;21.50;15.67;;;-7.70;99.90;;;;;;5034582;28;20183;-72
2022/12/18 07:56:01;;;;;;;26.60;19.40;;;-7.60;99.90;;;;;;5034285;28;20210;-73
2022/12/18 07:58:28;;;;;;;39.27;21.87;;;-7.50;99.90;;;;;;5032902;28;20803;-73
2022/12/18 08:00:54;;;;;;;19.50;15.63;;;-7.40;99.90;;;;;;5034242;28;20666;-72
2022/12/18 08:03:20;;;;;;;39.73;19.23;;;-7.30;99.90;;;;;;5035253;28;20755;-72
2022/12/18 08:05:49;;;;;;;37.03;18.27;;;-7.10;99.90;;;;;;5033431;28;20234;-72
2022/12/18 08:08:15;;;;;;;39.97;20.23;;;-6.90;99.90;;;;;;5032059;28;20183;-72
2022/12/18 08:10:40;;;;;;;39.00;20.50;;;-6.70;99.90;;;;;;5034634;28;20179;-74
2022/12/18 08:13:06;;;;;;;43.03;22.00;;;-6.50;99.90;;;;;;5027212;28;20175;-76
2022/12/18 08:15:32;;;;;;;34.53;21.20;;;-6.30;99.90;;;;;;5023513;28;20225;-72
2022/12/18 08:17:58;;;;;;;41.40;21.77;;;-6.10;99.90;;;;;;5022551;28;20176;-71
2022/12/18 08:20:24;;;;;;;40.17;22.07;;;-6.00;99.90;;;;;;5023602;28;20183;-72
2022/12/18 08:22:50;;;;;;;43.17;23.13;;;-5.90;99.90;;;;;;5030801;28;20252;-72
2022/12/18 08:25:16;;;;;;;43.17;22.93;;;-5.80;99.90;;;;;;5031848;28;20202;-72
2022/12/18 08:27:44;;;;;;;43.93;23.03;;;-5.70;99.90;;;;;;5042213;28;20182;-76
2022/12/18 08:30:10;;;;;;;45.47;24.97;;;-5.60;99.90;;;;;;5038775;28;20185;-72
2022/12/18 08:32:39;;;;;;;44.97;23.17;;;-5.50;99.90;;;;;;5010945;28;20901;-70
2022/12/18 08:35:06;;;;;;;44.57;23.53;;;-5.30;99.90;;;;;;5030360;28;20191;-70
2022/12/18 08:37:31;;;;;;;33.50;20.20;;;-5.10;99.90;;;;;;5032455;28;20187;-70
2022/12/18 08:39:57;;;;;;;48.63;26.23;;;-5.00;99.90;;;;;;5031708;28;20195;-69
2022/12/18 08:45:08;;;;;;;39.83;19.20;;;-4.50;99.90;;;;;;5014935;28;20703;-70
2022/12/18 08:47:34;;;;;;;21.60;16.97;;;-4.30;99.90;;;;;;5013425;28;20190;-69
2022/12/18 08:50:00;;;;;;;52.67;29.10;;;-4.00;99.90;;;;;;5022123;28;20278;-71
2022/12/18 08:52:26;;;;;;;47.87;28.17;;;-3.90;99.90;;;;;;5031738;28;20195;-69
2022/12/18 08:54:51;;;;;;;52.17;26.93;;;-3.80;99.90;;;;;;5032164;28;20185;-70
2022/12/18 08:57:17;;;;;;;52.47;25.80;;;-3.90;99.90;;;;;;5030595;28;20206;-69
2022/12/18 08:59:43;;;;;;;53.97;28.27;;;-3.90;99.90;;;;;;5031846;28;20705;-66
2022/12/18 09:02:12;;;;;;;53.60;27.00;;;-3.80;99.90;;;;;;5032434;28;20187;-69
2022/12/18 09:04:39;;;;;;;40.70;23.57;;;-3.60;99.90;;;;;;5030432;28;20664;-70
2022/12/18 09:07:05;;;;;;;25.03;17.07;;;-3.20;99.90;;;;;;5031469;28;20769;-70
2022/12/18 09:09:31;;;;;;;43.40;25.17;;;-2.90;99.90;;;;;;5032767;28;20179;-68
2022/12/18 09:11:56;;;;;;;38.23;23.60;;;-2.90;99.90;;;;;;5032211;28;20175;-70
2022/12/18 09:14:22;;;;;;;40.30;19.33;;;-2.60;99.90;;;;;;5032727;28;20221;-70
2022/12/18 09:16:48;;;;;;;44.73;21.87;;;-2.50;99.90;;;;;;5032491;28;20207;-70
2022/12/18 09:19:14;;;;;;;26.60;17.13;;;-2.20;99.90;;;;;;5032539;28;20321;-70
2022/12/18 09:21:39;;;;;;;26.00;15.40;;;-2.10;99.90;;;;;;5032827;28;20221;-70
2022/12/18 09:24:06;;;;;;;22.77;14.07;;;-1.80;99.90;;;;;;5037466;28;20194;-69
2022/12/18 09:26:31;;;;;;;43.20;22.23;;;-1.60;99.90;;;;;;5051467;28;20233;-67
2022/12/18 09:28:57;;;;;;;35.93;20.47;;;-1.50;99.90;;;;;;5050028;28;20667;-70
2022/12/18 09:31:24;;;;;;;28.37;18.00;;;-1.30;99.90;;;;;;5032704;28;20257;-71
2022/12/18 09:33:50;;;;;;;41.27;20.83;;;-1.20;99.90;;;;;;5032948;28;20190;-68
2022/12/18 09:36:18;;;;;;;51.00;25.47;;;-1.00;99.90;;;;;;5031627;28;20203;-67
2022/12/18 09:38:44;;;;;;;36.00;21.80;;;-0.80;99.90;;;;;;5032393;28;20537;-67
2022/12/18 09:41:42;;;;;;;29.40;18.07;;;-0.80;99.90;;;;;;5032232;28;20175;-68
2022/12/18 09:44:19;;;;;;;32.50;19.30;;;-0.80;99.90;;;;;;5031563;28;20193;-67
2022/12/18 09:46:51;;;;;;;40.73;22.27;;;-0.90;99.90;;;;;;5031622;28;20236;-68
2022/12/18 09:49:22;;;;;;;30.87;17.27;;;-1.00;99.90;;;;;;5032464;28;20198;-68
2022/12/18 09:52:00;;;;;;;15.53;11.57;;;-0.80;99.90;;;;;;5032234;28;20189;-69
2022/12/18 09:54:36;;;;;;;25.77;14.93;;;-0.60;99.90;;;;;;5032477;28;20186;-68
2022/12/18 09:57:03;;;;;;;40.57;22.17;;;-0.70;99.90;;;;;;5031983;28;20268;-69
2022/12/18 09:59:37;;;;;;;39.70;19.63;;;-0.50;99.90;;;;;;5032108;28;20186;-69
2022/12/18 10:02:21;;;;;;;32.37;20.40;;;-0.20;99.90;;;;;;5032440;28;20274;-69
2022/12/18 10:05:11;;;;;;;19.77;15.20;;;-0.30;99.90;;;;;;5032397;28;20182;-68
2022/12/18 10:07:47;;;;;;;26.10;18.77;;;-0.30;99.90;;;;;;5031831;28;20218;-69
2022/12/18 10:10:37;;;;;;;24.60;14.33;;;-0.40;99.90;;;;;;5031845;28;20186;-69
2022/12/18 10:13:20;;;;;;;30.30;17.87;;;-0.30;99.90;;;;;;5032145;28;20234;-67
2022/12/18 10:16:10;;;;;;;28.67;20.20;;;-0.10;99.90;;;;;;5032130;28;20573;-69
2022/12/18 10:18:44;;;;;;;31.87;18.33;;;0.00;99.90;;;;;;5031579;28;20225;-69
2022/12/18 10:21:20;;;;;;;40.13;21.27;;;0.40;99.90;;;;;;5030773;28;20282;-70
2022/12/18 10:23:57;;;;;;;37.80;22.53;;;0.40;99.90;;;;;;5032218;28;20269;-69
2022/12/18 10:26:24;;;;;;;24.47;14.70;;;0.30;99.90;;;;;;5031934;28;20244;-68
2022/12/18 10:28:51;;;;;;;40.77;18.03;;;0.30;99.90;;;;;;5031317;28;20183;-69
2022/12/18 10:31:22;;;;;;;23.50;16.03;;;0.60;99.90;;;;;;5031569;28;20662;-68
2022/12/18 10:33:48;;;;;;;34.60;18.37;;;0.50;99.90;;;;;;5031755;28;20179;-68
2022/12/18 10:36:14;;;;;;;14.27;12.50;;;0.20;99.90;;;;;;5031570;28;20628;-68
2022/12/18 10:38:40;;;;;;;22.60;14.20;;;0.10;99.90;;;;;;5031196;28;20183;-68
2022/12/18 10:41:26;;;;;;;32.27;16.33;;;0.30;99.90;;;;;;5030202;28;20625;-68
2022/12/18 10:44:16;;;;;;;21.27;14.67;;;0.60;99.90;;;;;;5029987;28;20682;-67
2022/12/18 10:46:42;;;;;;;21.37;14.83;;;0.60;99.90;;;;;;5031111;28;20256;-68
2022/12/18 10:49:20;;;;;;;40.67;21.70;;;0.40;99.90;;;;;;5029639;28;20179;-67
2022/12/18 10:51:45;;;;;;;45.93;22.00;;;0.60;99.90;;;;;;5011586;28;20656;-68
2022/12/18 10:54:22;;;;;;;32.97;18.83;;;0.90;99.90;;;;;;5011424;28;20210;-67
2022/12/18 10:56:48;;;;;;;20.80;13.77;;;1.20;99.90;;;;;;5011248;28;20730;-68
2022/12/18 10:59:16;;;;;;;19.80;14.23;;;1.40;99.90;;;;;;5012113;28;20210;-68
2022/12/18 11:01:47;;;;;;;24.33;15.20;;;1.50;99.90;;;;;;5029766;28;20175;-69
2022/12/18 11:04:20;;;;;;;40.23;20.93;;;1.00;99.90;;;;;;5030529;28;20670;-69
2022/12/18 11:07:12;;;;;;;27.13;14.40;;;1.00;99.90;;;;;;5030628;28;20246;-68
2022/12/18 11:09:39;;;;;;;32.30;19.47;;;1.30;99.90;;;;;;5030531;28;20179;-69
2022/12/18 11:12:17;;;;;;;40.10;21.00;;;1.10;99.90;;;;;;5031477;28;20261;-70
2022/12/18 11:14:49;;;;;;;28.80;16.47;;;1.40;99.90;;;;;;5031323;28;20655;-69
2022/12/18 11:17:26;;;;;;;23.40;14.97;;;1.50;99.90;;;;;;5029569;28;20205;-68
2022/12/18 11:20:00;;;;;;;36.13;19.80;;;1.40;99.90;;;;;;5030907;28;20194;-69
2022/12/18 11:22:33;;;;;;;19.60;12.60;;;1.30;99.90;;;;;;5029991;28;20182;-69
2022/12/18 11:25:12;;;;;;;39.83;19.27;;;1.50;99.90;;;;;;5031021;28;20185;-67
2022/12/18 11:27:39;;;;;;;36.50;19.30;;;1.30;99.90;;;;;;5031183;28;20557;-68
2022/12/18 11:30:23;;;;;;;29.33;16.83;;;1.20;99.90;;;;;;5030813;28;20178;-68
2022/12/18 11:32:56;;;;;;;26.90;16.47;;;1.30;99.90;;;;;;5029899;28;20187;-68
2022/12/18 11:35:44;;;;;;;24.30;15.57;;;1.00;99.90;;;;;;5031098;28;20190;-68
2022/12/18 11:38:23;;;;;;;29.20;17.30;;;0.80;99.90;;;;;;5029331;28;20199;-68
2022/12/18 11:42:08;;;;;;;18.77;12.27;;;0.70;99.90;;;;;;5030778;28;20186;-68
2022/12/18 11:44:20;;;;;;;36.50;20.27;;;1.00;99.90;;;;;;5030856;28;20264;-68
2022/12/18 11:46:55;;;;;;;38.00;20.37;;;1.20;99.90;;;;;;5030546;28;20301;-69
2022/12/18 11:49:34;;;;;;;26.33;16.60;;;1.50;99.90;;;;;;5029406;28;20179;-70
2022/12/18 11:52:03;;;;;;;20.73;13.57;;;1.80;99.90;;;;;;5030778;28;20190;-69
2022/12/18 11:54:28;;;;;;;34.20;18.53;;;1.70;99.90;;;;;;5030824;28;20175;-70
2022/12/18 11:57:11;;;;;;;20.07;13.43;;;1.40;99.90;;;;;;5030399;28;20213;-70
2022/12/18 12:00:12;;;;;;;44.47;22.00;;;1.20;99.90;;;;;;5029512;28;20243;-70
2022/12/18 12:02:50;;;;;;;23.57;13.87;;;1.00;99.90;;;;;;5030232;28;20280;-68
2022/12/18 12:05:40;;;;;;;32.63;19.73;;;1.10;99.90;;;;;;5030406;28;20268;-67
2022/12/18 12:08:11;;;;;;;18.70;14.87;;;0.90;99.90;;;;;;5029087;28;20185;-68
2022/12/18 12:10:52;;;;;;;29.93;18.57;;;0.70;99.90;;;;;;5029363;28;20221;-69
2022/12/18 12:13:30;;;;;;;30.17;17.50;;;0.70;99.90;;;;;;5030683;28;20185;-68
2022/12/18 12:16:14;;;;;;;32.13;16.50;;;0.90;99.90;;;;;;5032102;28;20301;-70
2022/12/18 12:19:04;;;;;;;33.20;17.77;;;1.00;99.90;;;;;;5033737;28;20240;-68
2022/12/18 12:21:40;;;;;;;29.43;17.30;;;1.10;99.90;;;;;;5034005;28;20187;-67
2022/12/18 12:24:24;;;;;;;33.53;18.13;;;1.10;99.90;;;;;;5034018;28;20187;-68
2022/12/18 12:27:02;;;;;;;34.63;18.23;;;1.20;99.90;;;;;;5032857;28;20567;-68
2022/12/18 12:29:33;;;;;;;39.93;22.10;;;1.00;99.90;;;;;;5032434;28;20180;-68
2022/12/18 12:32:08;;;;;;;25.57;15.93;;;0.80;99.90;;;;;;5033976;28;20549;-69
2022/12/18 12:35:11;;;;;;;27.30;14.33;;;0.90;99.90;;;;;;5032618;28;20178;-68
2022/12/18 12:37:36;;;;;;;23.57;14.53;;;1.00;99.90;;;;;;5019447;28;20668;-67
2022/12/18 12:40:03;;;;;;;34.63;18.87;;;0.90;99.90;;;;;;5019864;28;20190;-69
2022/12/18 12:45:34;;;;;;;21.80;14.37;;;0.80;99.90;;;;;;5032235;28;20701;-68
2022/12/18 12:48:02;;;;;;;21.60;12.87;;;0.70;99.90;;;;;;5033780;28;20183;-70
2022/12/18 12:50:34;;;;;;;30.13;16.90;;;0.50;99.90;;;;;;5033394;28;20249;-70
2022/12/18 12:53:05;;;;;;;34.67;17.67;;;0.30;99.90;;;;;;5033628;28;20192;-71